Latest Coastal Weather Observations for Strahan

IDT60701

Issued at 11:11 am EST Saturday 23 May 2015 (issued every 10 minutes, with the page automatically refreshed every 10 minutes)

About coastal observations | Map of coastal stations | Coastal observations for TAS | Marine services | Other Formats
Station Details ID: 097072 Name: STRAHAN AERODROME Lat: -42.16 Lon: 145.29 Height: 21.0 m
Data from the previous 72 hours. | See also: Recent months at Strahan
Date/Time
EST
Temp

°C
Wind Pressure Rain
since 9am
mm
Weather Cloud Vis
km
Sea
Height
m
Swell
Dir
 
Speed
knots
Gust
knots
hPa Trend Height
m
Period
s
Dir
23/11:00am 9.9 CALM 0 1 1032.0 - 0.0 - Partly cloudy 10 - - - -
23/10:30am 9.8 SE 1 4 1032.0 - 0.0 - Cloudy 10 - - - -
23/10:00am 9.5 E 2 4 1032.0 - 0.0 - Cloudy 10 - - - -
23/09:30am 8.6 ENE 3 5 1031.9 - 0.0 - Partly cloudy 10 - - - -
23/09:00am 8.4 CALM 0 0 1031.8 - 1.8 - Cloudy 10 - - - -
23/08:30am 7.8 N 4 5 1031.8 - 1.8 - Cloudy 10 - - - -
23/08:00am 7.4 NNE 3 4 1031.6 - 1.8 - Cloudy 10 - - - -
23/07:30am 7.2 ENE 3 4 1031.2 - 1.8 - Cloudy 10 - - - -
23/07:00am 7.3 N 3 4 1031.1 - 1.8 - Cloudy 10 - - - -
23/06:30am 7.3 NNE 4 6 1030.9 - 1.8 - Cloudy 10 - - - -
23/06:00am 7.4 NE 4 5 1030.8 - 1.8 - Cloudy 10 - - - -
23/05:30am 7.6 SE 2 5 1030.8 - 1.8 - Partly cloudy 10 - - - -
23/05:00am 7.6 ENE 3 5 1030.6 - 1.8 - Partly cloudy 10 - - - -
23/04:30am 7.7 NNE 5 7 1030.4 - 1.8 - Cloudy 10 - - - -
23/04:00am 7.5 NE 3 5 1030.4 - 1.8 - Cloudy 10 - - - -
23/03:30am 7.6 NNE 5 7 1030.5 - 1.8 - Partly cloudy 10 - - - -
23/03:00am 7.6 NNE 4 6 1030.7 - 1.8 - Cloudy 10 - - - -
23/02:30am 7.6 NNE 5 6 1030.8 - 1.8 - Cloudy 10 - - - -
23/02:00am 7.6 NE 4 5 1030.9 - 1.8 - Cloudy 10 - - - -
23/01:30am 7.5 ENE 3 3 1031.1 - 1.8 - Cloudy 10 - - - -
23/01:00am 7.6 NNE 4 5 1031.1 - 1.8 - Cloudy 10 - - - -
23/12:30am 7.5 NE 3 4 1031.1 - 1.8 - Cloudy 10 - - - -
23/12:00am 7.6 NNE 4 5 1031.1 - 1.8 - Cloudy 10 - - - -
 
Date/Time
EST
Temp

°C
Wind Pressure Rain
since 9am
mm
Weather Cloud Vis
km
Sea
Height
m
Swell
Dir
 
Speed
knots
Gust
knots
hPa Trend Height
m
Period
s
Dir
22/11:30pm 7.5 NNE 4 5 1031.1 - 1.8 - Partly cloudy 10 - - - -
22/11:00pm 7.7 ENE 3 5 1031.3 - 1.8 - Cloudy 10 - - - -
22/10:30pm 7.6 E 5 5 1031.4 - 1.8 - Partly cloudy 10 - - - -
22/10:22pm 7.8 E 4 6 1031.4 - 1.8 - Partly cloudy 10 - - - -
22/10:19pm 7.8 E 4 6 1031.4 - 1.8 - Partly cloudy 10 - - - -
22/10:00pm 8.1 E 2 4 1031.4 - 1.8 - Partly cloudy 4 - - - -
22/09:44pm 8.3 CALM 0 0 1031.5 - 1.6 - Partly cloudy 5 - - - -
22/09:40pm 8.3 CALM 0 0 1031.5 - 1.4 - Partly cloudy 10 - - - -
22/09:39pm 8.3 CALM 0 0 1031.5 - 1.4 - Partly cloudy 9 - - - -
22/09:38pm 8.3 CALM 0 0 1031.5 - 1.4 - Partly cloudy 8 - - - -
22/09:30pm 8.2 SSW 1 3 1031.4 - 1.4 - Partly cloudy 6 - - - -
22/09:13pm 7.9 CALM 0 0 1031.4 - 1.2 - Partly cloudy 5 - - - -
22/09:09pm 7.9 CALM 0 0 1031.4 - 1.0 - Partly cloudy 10 - - - -
22/09:00pm 8.0 CALM 0 3 1031.4 - 1.0 Recent precip. Cloudy 6 - - - -
22/08:56pm 8.0 NW 1 4 1031.4 - 1.0 - Partly cloudy 4 - - - -
22/08:43pm 7.9 NNE 3 7 1031.4 - 0.6 - Partly cloudy 5 - - - -
22/08:30pm 7.8 ENE 3 5 1031.3 - 0.6 - Partly cloudy 10 - - - -
22/08:00pm 7.9 CALM 0 0 1031.1 - 0.6 - Partly cloudy 10 - - - -
22/07:30pm 8.0 SSW 3 4 1031.0 - 0.6 - Partly cloudy 10 - - - -
22/07:00pm 8.3 SW 9 13 1030.8 - 0.4 - Partly cloudy 10 - - - -
22/06:30pm 8.3 SW 5 7 1030.6 - 0.4 - Partly cloudy 10 - - - -
22/06:23pm 8.6 SSW 3 5 1030.7 - 0.4 - Partly cloudy 10 - - - -
22/06:00pm 8.6 SSW 2 3 1030.6 - 0.2 Recent precip. Cloudy 8 - - - -
22/05:30pm 9.0 SSW 7 8 1030.6 - 0.0 - Partly cloudy 3 - - - -
22/05:26pm 9.1 SSW 6 8 1030.5 - 0.0 - Partly cloudy 5 - - - -
22/05:00pm 9.8 WSW 7 10 1030.3 - 0.0 - Partly cloudy 10 - - - -
22/04:30pm 10.3 SSW 2 3 1030.3 - 0.0 - Cloudy 10 - - - -
22/04:00pm 10.5 SW 4 6 1030.3 - 0.0 - Cloudy 10 - - - -
22/03:30pm 10.6 SW 9 12 1030.2 - 0.0 - Cloudy 10 - - - -
22/03:00pm 10.8 SSW 8 11 1030.1 - 0.0 - Cloudy 10 - - - -
22/02:30pm 11.2 SSW 6 8 1030.0 - 0.0 - Cloudy 10 - - - -
22/02:00pm 11.1 SSW 8 12 1030.0 - 0.0 - Cloudy 10 - - - -
22/01:30pm 11.2 SW 3 5 1029.9 - 0.0 - Cloudy 10 - - - -
22/01:00pm 11.0 CALM 0 0 1030.1 - 0.0 - Cloudy 10 - - - -
22/12:30pm 10.7 CALM 0 3 1030.3 - 0.0 - Cloudy 10 - - - -
22/12:00pm 10.8 E 4 6 1030.6 - 0.0 - Cloudy 10 - - - -
22/11:30am 10.4 ENE 3 4 1031.0 - 0.0 - Cloudy 10 - - - -
22/11:00am 9.7 ENE 3 5 1031.1 - 0.0 - Cloudy 10 - - - -
22/10:30am 9.5 E 3 4 1031.0 - 0.0 - Cloudy 10 - - - -
22/10:00am 8.8 E 4 5 1030.9 - 0.0 - Cloudy 10 - - - -
22/09:30am 8.4 ENE 3 4 1030.9 - 0.0 - Cloudy 10 - - - -
22/09:00am 8.0 ESE 1 4 1030.9 - 0.0 - Cloudy 10 - - - -
22/08:30am 7.7 SW 4 5 1030.7 - 0.0 - Cloudy 10 - - - -
22/08:00am 7.3 CALM 0 0 1030.4 - 0.0 - Cloudy 10 - - - -
22/07:30am 7.2 WSW 1 3 1030.2 - 0.0 - Cloudy 10 - - - -
22/07:00am 7.1 CALM 0 0 1030.1 - 0.0 - Cloudy 10 - - - -
22/06:30am 7.2 NE 2 4 1029.7 - 0.0 - Cloudy 10 - - - -
22/06:00am 7.3 NE 3 4 1029.5 - 0.0 - Cloudy 10 - - - -
22/05:30am 7.1 ENE 3 4 1029.5 - 0.0 - Cloudy 10 - - - -
22/05:00am 7.1 NE 1 3 1029.5 - 0.0 - Cloudy 10 - - - -
22/04:30am 7.2 NW 3 3 1029.3 - 0.0 - Cloudy 10 - - - -
22/04:00am 7.3 WNW 3 4 1029.3 - 0.0 - Cloudy 10 - - - -
22/03:30am 7.3 NNE 3 4 1029.3 - 0.0 - Cloudy 10 - - - -
22/03:00am 7.4 NNE 3 4 1029.3 - 0.0 - Cloudy 10 - - - -
22/02:30am 7.9 NNE 3 4 1029.3 - 0.0 - Cloudy 10 - - - -
22/02:00am 7.9 ENE 3 4 1029.2 - 0.0 - Cloudy 10 - - - -
22/01:30am 7.7 E 5 6 1029.3 - 0.0 - Cloudy 10 - - - -
22/01:00am 7.7 ESE 6 7 1029.4 - 0.0 - Cloudy 10 - - - -
22/12:30am 7.7 ESE 6 7 1029.5 - 0.0 - Cloudy 10 - - - -
22/12:00am 7.7 ESE 6 8 1029.3 - 0.0 - Cloudy 10 - - - -
 
Date/Time
EST
Temp

°C
Wind Pressure Rain
since 9am
mm
Weather Cloud Vis
km
Sea
Height
m
Swell
Dir
 
Speed
knots
Gust
knots
hPa Trend Height
m
Period
s
Dir
21/11:30pm 7.3 ESE 5 6 1029.3 - 0.0 - Cloudy 10 - - - -
21/11:00pm 7.1 ESE 5 6 1029.3 - 0.0 - Cloudy 10 - - - -
21/10:30pm 6.5 SSE 4 6 1029.4 - 0.0 - Cloudy 10 - - - -
21/10:00pm 6.2 SSE 3 5 1029.4 - 0.0 - Cloudy 10 - - - -
21/09:30pm 6.9 SE 4 5 1029.3 - 0.0 - Cloudy 10 - - - -
21/09:00pm 6.8 SSE 3 5 1029.1 - 0.0 - Partly cloudy 10 - - - -
21/08:30pm 8.0 S 7 8 1028.9 - 0.0 - Partly cloudy 10 - - - -
21/08:00pm 8.6 S 7 10 1028.8 - 0.0 - Cloudy 10 - - - -
21/07:30pm 9.0 S 8 11 1028.5 - 0.0 - Cloudy 10 - - - -
21/07:00pm 8.8 S 7 9 1028.2 - 0.0 - Cloudy 10 - - - -
21/06:30pm 8.5 S 7 9 1027.9 - 0.0 - Cloudy 10 - - - -
21/06:00pm 8.6 S 7 11 1027.7 - 0.0 - Mostly cloudy 10 - - - -
21/05:30pm 8.7 S 7 10 1027.3 - 0.0 - Cloudy 10 - - - -
21/05:00pm 8.9 S 9 11 1027.0 - 0.0 - Partly cloudy 10 - - - -
21/04:30pm 10.4 S 9 12 1026.6 - 0.0 - Cloudy 10 - - - -
21/04:00pm 10.8 S 8 11 1026.4 - 0.0 - Cloudy 10 - - - -
21/03:30pm 11.2 S 9 13 1026.0 - 0.0 - Cloudy 10 - - - -
21/03:00pm 11.4 SSE 9 12 1025.7 - 0.0 - - 10 - - - -
21/02:30pm 11.6 SSE 9 12 1025.5 - 0.0 - Partly cloudy 10 - - - -
21/02:00pm 10.7 SSE 11 15 1025.6 - 0.0 - Cloudy 10 - - - -
21/01:30pm 10.8 SSE 13 19 1025.6 - 0.0 - Cloudy 10 - - - -
21/01:00pm 11.3 SSE 11 16 1025.7 - 0.0 - Partly cloudy 10 - - - -
21/12:30pm 11.2 S 9 13 1025.9 - 0.0 - Cloudy 10 - - - -
21/12:00pm 11.4 S 11 15 1026.1 - 0.0 - Cloudy 10 - - - -
21/11:30am 10.7 S 11 14 1026.1 - 0.0 - Cloudy 10 - - - -
21/11:00am 10.3 S 8 11 1026.2 - 0.0 - Cloudy 10 - - - -
21/10:30am 10.0 SSE 6 8 1025.9 - 0.0 - Cloudy 10 - - - -
21/10:00am 9.5 S 8 10 1025.6 - 0.0 - Cloudy 10 - - - -
21/09:30am 9.4 SE 8 11 1025.4 - 0.0 - Partly cloudy 10 - - - -
21/09:00am 8.5 SSE 8 10 1025.2 - 0.0 - Cloudy 10 - - - -
21/08:53am 8.5 SSE 8 10 1025.1 - 0.0 - Partly cloudy 10 - - - -
21/08:30am 7.8 SE 5 8 1024.8 - 0.0 - Partly cloudy 10 - - - -
21/08:00am 6.8 SE 4 5 1024.3 - 0.0 - Partly cloudy 10 - - - -
21/07:44am 6.8 S 1 5 1024.0 - 0.0 - Partly cloudy 10 - - - -
21/07:30am 6.7 CALM 0 0 1023.7 - 0.0 - Partly cloudy 10 - - - -
21/07:18am 6.7 CALM 0 0 1023.5 - 0.0 - Partly cloudy 10 - - - -
21/07:00am 6.7 NNE 3 3 1023.2 - 0.0 - Partly cloudy 10 - - - -
21/06:30am 6.5 NE 4 4 1022.8 - 0.0 - Cloudy 10 - - - -
21/06:00am 6.6 ENE 3 4 1022.4 - 0.0 - Cloudy 10 - - - -
21/05:46am 6.4 ENE 3 4 1022.3 - 0.0 - Partly cloudy 10 - - - -
21/05:34am 6.4 ENE 4 5 1022.1 - 0.0 - Partly cloudy 5 - - - -
21/05:33am 6.4 ENE 4 5 1022.1 - 0.0 - Partly cloudy 5 - - - -
21/05:30am 6.4 ENE 4 5 1022.1 - 0.0 - Partly cloudy 9 - - - -
21/05:00am 6.4 E 4 5 1021.8 - 0.0 - Partly cloudy 10 - - - -
21/04:30am 6.7 NNE 3 4 1021.5 - 0.0 - Cloudy 10 - - - -
21/04:00am 6.5 NE 4 5 1021.2 - 0.0 - Partly cloudy 10 - - - -
21/03:30am 6.4 NE 4 6 1021.1 - 0.0 - Partly cloudy 10 - - - -
21/03:00am 6.9 NE 2 4 1021.1 - 0.0 - Cloudy 10 - - - -
21/02:30am 7.0 CALM 0 0 1020.9 - 0.0 - Partly cloudy 10 - - - -
21/02:00am 7.3 CALM 0 2 1020.9 - 0.0 - Cloudy 10 - - - -
21/01:30am 7.3 NE 4 5 1020.6 - 0.0 - Cloudy 10 - - - -
21/01:00am 7.2 NE 4 5 1020.4 - 0.0 - Cloudy 10 - - - -
21/12:30am 7.3 NNE 4 6 1020.3 - 0.0 - Cloudy 10 - - - -
21/12:00am 7.5 N 3 4 1020.2 - 0.0 - Cloudy 10 - - - -
 
Date/Time
EST
Temp

°C
Wind Pressure Rain
since 9am
mm
Weather Cloud Vis
km
Sea
Height
m
Swell
Dir
 
Speed
knots
Gust
knots
hPa Trend Height
m
Period
s
Dir
20/11:30pm 7.4 NNE 4 5 1020.0 - 0.0 - Cloudy 10 - - - -
20/11:00pm 7.7 ENE 3 4 1020.0 - 0.0 - Cloudy 10 - - - -
20/10:30pm 7.7 ENE 2 3 1020.0 - 0.0 - Cloudy 10 - - - -
20/10:00pm 7.8 ENE 3 4 1019.9 - 0.0 - Cloudy 10 - - - -
20/09:30pm 7.6 CALM 0 0 1019.6 - 0.0 - Cloudy 10 - - - -
20/09:00pm 7.6 SE 6 8 1019.4 - 0.0 - Cloudy 10 - - - -
20/08:30pm 7.8 SE 7 10 1019.0 - 0.0 - Cloudy 10 - - - -
20/08:00pm 8.1 SSE 8 11 1018.7 - 0.0 - Cloudy 10 - - - -
20/07:30pm 8.2 SSE 8 11 1018.1 - 0.0 - Cloudy 10 - - - -
20/07:00pm 8.4 S 9 14 1017.6 - 0.0 - Cloudy 10 - - - -
20/06:30pm 8.4 S 10 15 1017.0 - 0.0 - Cloudy 10 - - - -
20/06:00pm 8.5 S 9 12 1016.3 - 0.0 - Cloudy 10 - - - -
20/05:30pm 8.6 S 10 14 1015.8 - 0.0 - Partly cloudy 10 - - - -
20/05:00pm 8.8 SSE 11 14 1015.3 - 0.0 - Cloudy 10 - - - -
20/04:30pm 8.9 S 11 16 1015.0 - 0.0 - Cloudy 10 - - - -
20/04:00pm 9.1 SSE 11 16 1014.6 - 0.0 - Partly cloudy 10 - - - -
20/03:30pm 9.4 S 13 18 1014.2 - 0.0 - Cloudy 10 - - - -
20/03:00pm 9.9 S 13 18 1013.8 - 0.0 - Cloudy 10 - - - -
20/02:30pm 9.9 S 13 19 1013.4 - 0.0 - Cloudy 10 - - - -
20/02:00pm 10.3 S 12 18 1013.0 - 0.0 - Cloudy 10 - - - -
20/01:30pm 10.4 S 13 17 1012.7 - 0.0 - Partly cloudy 10 - - - -
20/01:00pm 10.2 S 13 18 1012.5 - 0.0 - Cloudy 10 - - - -
20/12:30pm 10.2 S 13 20 1012.4 - 0.0 - Cloudy 10 - - - -
20/12:00pm 10.7 S 13 19 1012.1 - 0.0 - Cloudy 10 - - - -
20/11:30am 10.9 SSE 13 21 1012.1 - 0.0 - Partly cloudy 10 - - - -

Other Formats:

Comma delimited format used in spreadsheet applications
http://www.bom.gov.au/fwo/IDT60701/IDT60701.94956.axf

JavaScript Object Notation format (JSON) in row-major order
http://www.bom.gov.au/fwo/IDT60701/IDT60701.94956.json